Terminal Aerodrome Forecast
Issued by NWS

Home | Current Version | Previous Version | Text Only | Print | Product List | Glossary On
Versions: 1 2 3 4 5 6 7 8 9 10 11 12 13 14 15 16 17 18 19 20 21
000
FTUS43 KMPX 220900 AAB
TAFRNH
TAF AMD
KRNH 220919Z 2209/2306 00000KT 2SM BR OVC003
      TEMPO 2209/2210 1/2SM FG VV002
     FM221300 00000KT 4SM BR OVC005
     FM221500 36004KT P6SM OVC008
     FM221700 36004KT P6SM BKN014
     FM222000 02004KT P6SM SCT025=

USA.gov is the U.S. government's official web portal to all federal, state and local government web resources and services.